JES3231 SANT-SAEZ
Flight info
| Callsign | JES3231 |
|---|---|
| Flight time | 1h 21m |
| Altitude | 37000 |
| Route | PUBER3E PUBER UL550 ROS UT672 MULTA UW24 SNT DCT |
| Aircraft | A321/M-SDE3FGHIRWY/LB1 |
Departure
| Time | 2026-05-07 17:36 |
|---|---|
| Airport | Teniente Benjamín Matienzo International Airport (SANT) |
Arrival
| Time | 2026-05-07 18:57 |
|---|---|
| Airport | Ezeiza International Airport - Ministro Pistarini (SAEZ) |
| Time | Latitude | Longitude | Altitude | Speed | Heading |
|---|---|---|---|---|---|
| 2026-05-07 16:38 | -26.83528 | -65.10750 | 1493 ft | 0 kts | 281° |
| 2026-05-07 17:26 | -26.83529 | -65.10748 | 1492 ft | 2 kts | 280° |
| 2026-05-07 17:26 | -26.83534 | -65.10719 | 1490 ft | 4 kts | 288° |
| 2026-05-07 17:26 | -26.83543 | -65.10699 | 1492 ft | 4 kts | 355° |
| 2026-05-07 17:26 | -26.83567 | -65.10702 | 1481 ft | 4 kts | 10° |
| 2026-05-07 17:27 | -26.83580 | -65.10705 | 1492 ft | 0 kts | 10° |
| 2026-05-07 17:29 | -26.83578 | -65.10704 | 1492 ft | 2 kts | 10° |
| 2026-05-07 17:29 | -26.83548 | -65.10698 | 1481 ft | 7 kts | 11° |
| 2026-05-07 17:30 | -26.83488 | -65.10684 | 1485 ft | 9 kts | 15° |
| 2026-05-07 17:30 | -26.83444 | -65.10653 | 1476 ft | 7 kts | 39° |
| 2026-05-07 17:30 | -26.83400 | -65.10613 | 1492 ft | 9 kts | 40° |
| 2026-05-07 17:30 | -26.83348 | -65.10563 | 1479 ft | 10 kts | 41° |
| 2026-05-07 17:31 | -26.83304 | -65.10521 | 1493 ft | 7 kts | 38° |
| 2026-05-07 17:31 | -26.83259 | -65.10480 | 1482 ft | 10 kts | 39° |
| 2026-05-07 17:31 | -26.83198 | -65.10422 | 1493 ft | 14 kts | 41° |
| 2026-05-07 17:31 | -26.83115 | -65.10345 | 1484 ft | 17 kts | 39° |
| 2026-05-07 17:32 | -26.83026 | -65.10279 | 1485 ft | 14 kts | 29° |
| 2026-05-07 17:32 | -26.82945 | -65.10259 | 1481 ft | 11 kts | 11° |
| 2026-05-07 17:32 | -26.82853 | -65.10240 | 1483 ft | 19 kts | 10° |
| 2026-05-07 17:32 | -26.82676 | -65.10207 | 1485 ft | 32 kts | 9° |
| 2026-05-07 17:33 | -26.82485 | -65.10181 | 1489 ft | 16 kts | 352° |
| 2026-05-07 17:33 | -26.82385 | -65.10205 | 1485 ft | 14 kts | 9° |
| 2026-05-07 17:33 | -26.82340 | -65.10167 | 1481 ft | 8 kts | 91° |
| 2026-05-07 17:33 | -26.82405 | -65.10153 | 1492 ft | 12 kts | 195° |
| 2026-05-07 17:34 | -26.82456 | -65.10163 | 1476 ft | 0 kts | 189° |
| 2026-05-07 17:35 | -26.82590 | -65.10190 | 1481 ft | 52 kts | 190° |
| 2026-05-07 17:35 | -26.83160 | -65.10303 | 1481 ft | 111 kts | 190° |
| 2026-05-07 17:35 | -26.84081 | -65.10483 | 1481 ft | 155 kts | 190° |
| 2026-05-07 17:35 | -26.85164 | -65.10685 | 2027 ft | 154 kts | 190° |
| 2026-05-07 17:36 | -26.86206 | -65.10779 | 2814 ft | 144 kts | 180° |
| 2026-05-07 17:36 | -26.87174 | -65.10709 | 3406 ft | 138 kts | 179° |
| 2026-05-07 17:36 | -26.88175 | -65.10583 | 3811 ft | 151 kts | 174° |
| 2026-05-07 17:36 | -26.89269 | -65.10364 | 4029 ft | 173 kts | 169° |
| 2026-05-07 17:37 | -26.90481 | -65.09977 | 4221 ft | 190 kts | 164° |
| 2026-05-07 17:37 | -26.91774 | -65.09385 | 4358 ft | 211 kts | 159° |
| 2026-05-07 17:37 | -26.93133 | -65.08528 | 4574 ft | 237 kts | 149° |
| 2026-05-07 17:37 | -26.94547 | -65.07493 | 5240 ft | 246 kts | 152° |
| 2026-05-07 17:38 | -26.96007 | -65.06479 | 6059 ft | 249 kts | 153° |
| 2026-05-07 17:38 | -26.97487 | -65.05474 | 6833 ft | 249 kts | 152° |
| 2026-05-07 17:38 | -26.98991 | -65.04452 | 7481 ft | 257 kts | 152° |
| 2026-05-07 17:38 | -27.00551 | -65.03394 | 8114 ft | 266 kts | 152° |
| 2026-05-07 17:39 | -27.02144 | -65.02308 | 8810 ft | 270 kts | 152° |
| 2026-05-07 17:39 | -27.03765 | -65.01195 | 9500 ft | 277 kts | 151° |
| 2026-05-07 17:39 | -27.05410 | -65.00058 | 10035 ft | 287 kts | 150° |
| 2026-05-07 17:39 | -27.07164 | -64.98842 | 10289 ft | 308 kts | 151° |
| 2026-05-07 17:40 | -27.09060 | -64.97540 | 10434 ft | 331 kts | 152° |
| 2026-05-07 17:40 | -27.11071 | -64.96164 | 10795 ft | 343 kts | 152° |
| 2026-05-07 17:40 | -27.13139 | -64.94744 | 11286 ft | 354 kts | 153° |
| 2026-05-07 17:40 | -27.15266 | -64.93282 | 11847 ft | 362 kts | 152° |
| 2026-05-07 17:41 | -27.17436 | -64.91787 | 12437 ft | 369 kts | 152° |
| 2026-05-07 17:41 | -27.19636 | -64.90264 | 12985 ft | 376 kts | 153° |
| 2026-05-07 17:41 | -27.21881 | -64.88713 | 13540 ft | 381 kts | 153° |
| 2026-05-07 17:41 | -27.24129 | -64.87161 | 14018 ft | 388 kts | 154° |
| 2026-05-07 17:42 | -27.26447 | -64.85559 | 14543 ft | 393 kts | 154° |
| 2026-05-07 17:42 | -27.28778 | -64.83944 | 15079 ft | 395 kts | 155° |
| 2026-05-07 17:42 | -27.31135 | -64.82315 | 15616 ft | 400 kts | 155° |
| 2026-05-07 17:42 | -27.33517 | -64.80673 | 16174 ft | 404 kts | 156° |
| 2026-05-07 17:43 | -27.35925 | -64.79016 | 16737 ft | 407 kts | 156° |
| 2026-05-07 17:43 | -27.38346 | -64.77346 | 17277 ft | 411 kts | 156° |
| 2026-05-07 17:43 | -27.40795 | -64.75654 | 17814 ft | 415 kts | 157° |
| 2026-05-07 17:43 | -27.43259 | -64.73947 | 18419 ft | 418 kts | 157° |
| 2026-05-07 17:44 | -27.45742 | -64.72223 | 18950 ft | 420 kts | 157° |
| 2026-05-07 17:44 | -27.48234 | -64.70491 | 19481 ft | 421 kts | 157° |
| 2026-05-07 17:44 | -27.50730 | -64.68756 | 20003 ft | 422 kts | 158° |
| 2026-05-07 17:44 | -27.53200 | -64.67039 | 20495 ft | 424 kts | 158° |
| 2026-05-07 17:45 | -27.55716 | -64.65293 | 21015 ft | 425 kts | 158° |
| 2026-05-07 17:45 | -27.58236 | -64.63542 | 21537 ft | 427 kts | 158° |
| 2026-05-07 17:45 | -27.60766 | -64.61780 | 22044 ft | 428 kts | 158° |
| 2026-05-07 17:45 | -27.63303 | -64.60013 | 22547 ft | 429 kts | 158° |
| 2026-05-07 17:46 | -27.65851 | -64.58239 | 23126 ft | 431 kts | 158° |
| 2026-05-07 17:46 | -27.68406 | -64.56457 | 23586 ft | 433 kts | 158° |
| 2026-05-07 17:46 | -27.70967 | -64.54668 | 23973 ft | 435 kts | 158° |
| 2026-05-07 17:46 | -27.73546 | -64.52868 | 24351 ft | 436 kts | 158° |
| 2026-05-07 17:47 | -27.76134 | -64.51062 | 24729 ft | 438 kts | 158° |
| 2026-05-07 17:47 | -27.78732 | -64.49249 | 25107 ft | 440 kts | 158° |
| 2026-05-07 17:47 | -27.81342 | -64.47430 | 25487 ft | 442 kts | 158° |
| 2026-05-07 17:47 | -27.83962 | -64.45601 | 25854 ft | 444 kts | 158° |
| 2026-05-07 17:48 | -27.86592 | -64.43763 | 26216 ft | 446 kts | 158° |
| 2026-05-07 17:48 | -27.89233 | -64.41915 | 26625 ft | 447 kts | 158° |
| 2026-05-07 17:48 | -27.91886 | -64.40053 | 26887 ft | 451 kts | 157° |
| 2026-05-07 17:48 | -27.94523 | -64.38205 | 27179 ft | 453 kts | 157° |
| 2026-05-07 17:49 | -27.97212 | -64.36323 | 27509 ft | 456 kts | 157° |
| 2026-05-07 17:49 | -27.99918 | -64.34427 | 27767 ft | 460 kts | 156° |
| 2026-05-07 17:49 | -28.02659 | -64.32508 | 27960 ft | 466 kts | 156° |
| 2026-05-07 17:49 | -28.05421 | -64.30567 | 28259 ft | 469 kts | 156° |
| 2026-05-07 17:50 | -28.08198 | -64.28612 | 28564 ft | 471 kts | 156° |
| 2026-05-07 17:50 | -28.10990 | -64.26647 | 28889 ft | 473 kts | 156° |
| 2026-05-07 17:50 | -28.13789 | -64.24677 | 29238 ft | 475 kts | 156° |
| 2026-05-07 17:50 | -28.16604 | -64.22700 | 29503 ft | 477 kts | 156° |
| 2026-05-07 17:51 | -28.19430 | -64.20714 | 29790 ft | 479 kts | 156° |
| 2026-05-07 17:51 | -28.22228 | -64.18745 | 30047 ft | 481 kts | 156° |
| 2026-05-07 17:51 | -28.25073 | -64.16734 | 30295 ft | 483 kts | 156° |
| 2026-05-07 17:51 | -28.27926 | -64.14722 | 30563 ft | 483 kts | 156° |
| 2026-05-07 17:52 | -28.30797 | -64.12738 | 30905 ft | 481 kts | 157° |
| 2026-05-07 17:52 | -28.33662 | -64.10789 | 31328 ft | 478 kts | 158° |
| 2026-05-07 17:52 | -28.36512 | -64.08867 | 31785 ft | 476 kts | 157° |
| 2026-05-07 17:52 | -28.39351 | -64.06954 | 32178 ft | 474 kts | 158° |
| 2026-05-07 17:53 | -28.42173 | -64.05042 | 32589 ft | 471 kts | 158° |
| 2026-05-07 17:53 | -28.44987 | -64.03126 | 32876 ft | 473 kts | 157° |
| 2026-05-07 17:53 | -28.47812 | -64.01194 | 33096 ft | 475 kts | 156° |
| 2026-05-07 17:53 | -28.50637 | -63.99253 | 33402 ft | 474 kts | 156° |
| 2026-05-07 17:54 | -28.53460 | -63.97311 | 33767 ft | 473 kts | 156° |
| 2026-05-07 17:54 | -28.56270 | -63.95379 | 34106 ft | 472 kts | 157° |
| 2026-05-07 17:54 | -28.59040 | -63.93480 | 34385 ft | 471 kts | 156° |
| 2026-05-07 17:54 | -28.61852 | -63.91555 | 34627 ft | 471 kts | 156° |
| 2026-05-07 17:55 | -28.64663 | -63.89634 | 34843 ft | 472 kts | 156° |
| 2026-05-07 17:55 | -28.67479 | -63.87707 | 35073 ft | 472 kts | 156° |
| 2026-05-07 17:55 | -28.70297 | -63.85776 | 35295 ft | 473 kts | 156° |
| 2026-05-07 17:55 | -28.73117 | -63.83840 | 35517 ft | 475 kts | 156° |
| 2026-05-07 17:56 | -28.75942 | -63.81893 | 35759 ft | 474 kts | 156° |
| 2026-05-07 17:56 | -28.78768 | -63.79945 | 35987 ft | 475 kts | 156° |
| 2026-05-07 17:56 | -28.81594 | -63.77990 | 36208 ft | 475 kts | 156° |
| 2026-05-07 17:56 | -28.84422 | -63.76031 | 36442 ft | 476 kts | 155° |
| 2026-05-07 17:57 | -28.87253 | -63.74065 | 36612 ft | 476 kts | 155° |
| 2026-05-07 17:57 | -28.89127 | -63.72762 | 36712 ft | 477 kts | 155° |
| 2026-05-07 17:57 | -28.92928 | -63.70124 | 36877 ft | 479 kts | 154° |
| 2026-05-07 17:57 | -28.95741 | -63.68169 | 36896 ft | 481 kts | 155° |
| 2026-05-07 17:58 | -29.01449 | -63.64188 | 36894 ft | 481 kts | 154° |
| 2026-05-07 17:58 | -29.07162 | -63.60192 | 36903 ft | 481 kts | 154° |
| 2026-05-07 17:59 | -29.12869 | -63.56202 | 36890 ft | 481 kts | 154° |
| 2026-05-07 17:59 | -29.18584 | -63.52200 | 36894 ft | 482 kts | 154° |
| 2026-05-07 18:00 | -29.24298 | -63.48181 | 36908 ft | 482 kts | 154° |
| 2026-05-07 18:00 | -29.29985 | -63.44191 | 36933 ft | 482 kts | 154° |
| 2026-05-07 18:01 | -29.35713 | -63.40179 | 36881 ft | 483 kts | 153° |
| 2026-05-07 18:01 | -29.41457 | -63.36139 | 36876 ft | 486 kts | 153° |
| 2026-05-07 18:02 | -29.50121 | -63.30022 | 36897 ft | 488 kts | 153° |
| 2026-05-07 18:03 | -29.55903 | -63.25914 | 36926 ft | 489 kts | 153° |
| 2026-05-07 18:03 | -29.61642 | -63.21819 | 36920 ft | 489 kts | 153° |
| 2026-05-07 18:04 | -29.67431 | -63.17695 | 36913 ft | 489 kts | 153° |
| 2026-05-07 18:04 | -29.73216 | -63.13578 | 36948 ft | 489 kts | 153° |
| 2026-05-07 18:05 | -29.79001 | -63.09457 | 36900 ft | 490 kts | 153° |
| 2026-05-07 18:05 | -29.84801 | -63.05319 | 36889 ft | 491 kts | 153° |
| 2026-05-07 18:06 | -29.90579 | -63.01188 | 36884 ft | 492 kts | 152° |
| 2026-05-07 18:06 | -29.96399 | -62.97018 | 36909 ft | 493 kts | 152° |
| 2026-05-07 18:07 | -30.02214 | -62.92840 | 36912 ft | 493 kts | 152° |
| 2026-05-07 18:07 | -30.08035 | -62.88659 | 36901 ft | 493 kts | 152° |
| 2026-05-07 18:08 | -30.13857 | -62.84471 | 36896 ft | 493 kts | 152° |
| 2026-05-07 18:08 | -30.19682 | -62.80278 | 36898 ft | 493 kts | 152° |
| 2026-05-07 18:09 | -30.25522 | -62.76077 | 36867 ft | 495 kts | 152° |
| 2026-05-07 18:09 | -30.31375 | -62.71854 | 36865 ft | 496 kts | 152° |
| 2026-05-07 18:10 | -30.37195 | -62.67629 | 36869 ft | 497 kts | 152° |
| 2026-05-07 18:10 | -30.43060 | -62.63380 | 36903 ft | 497 kts | 152° |
| 2026-05-07 18:11 | -30.48916 | -62.59138 | 36888 ft | 496 kts | 152° |
| 2026-05-07 18:11 | -30.54768 | -62.54894 | 36885 ft | 496 kts | 151° |
| 2026-05-07 18:12 | -30.60619 | -62.50639 | 36874 ft | 496 kts | 151° |
| 2026-05-07 18:12 | -30.66478 | -62.46371 | 36857 ft | 498 kts | 151° |
| 2026-05-07 18:13 | -30.72310 | -62.42112 | 36854 ft | 499 kts | 151° |
| 2026-05-07 18:13 | -30.78197 | -62.37813 | 36852 ft | 500 kts | 151° |
| 2026-05-07 18:14 | -30.84095 | -62.33521 | 36864 ft | 500 kts | 151° |
| 2026-05-07 18:14 | -30.89994 | -62.29243 | 36868 ft | 500 kts | 151° |
| 2026-05-07 18:15 | -30.95891 | -62.24955 | 36847 ft | 499 kts | 151° |
| 2026-05-07 18:15 | -31.01781 | -62.20658 | 36812 ft | 500 kts | 150° |
| 2026-05-07 18:16 | -31.07656 | -62.16369 | 36839 ft | 503 kts | 150° |
| 2026-05-07 18:16 | -31.13588 | -62.12046 | 36832 ft | 502 kts | 150° |
| 2026-05-07 18:17 | -31.19510 | -62.07717 | 36829 ft | 503 kts | 150° |
| 2026-05-07 18:17 | -31.25423 | -62.03345 | 36856 ft | 503 kts | 150° |
| 2026-05-07 18:18 | -31.31320 | -61.98958 | 36856 ft | 502 kts | 150° |
| 2026-05-07 18:18 | -31.37230 | -61.94565 | 36859 ft | 503 kts | 150° |
| 2026-05-07 18:19 | -31.43119 | -61.90175 | 36782 ft | 502 kts | 149° |
| 2026-05-07 18:19 | -31.49027 | -61.85763 | 36807 ft | 505 kts | 149° |
| 2026-05-07 18:20 | -31.54910 | -61.81366 | 36806 ft | 505 kts | 150° |
| 2026-05-07 18:20 | -31.60835 | -61.76934 | 36794 ft | 507 kts | 149° |
| 2026-05-07 18:21 | -31.66794 | -61.72492 | 36826 ft | 508 kts | 149° |
| 2026-05-07 18:21 | -31.72745 | -61.68012 | 36829 ft | 509 kts | 149° |
| 2026-05-07 18:22 | -31.78713 | -61.63503 | 36828 ft | 509 kts | 149° |
| 2026-05-07 18:22 | -31.83671 | -61.59761 | 36831 ft | 508 kts | 148° |
| 2026-05-07 18:23 | -31.90590 | -61.54572 | 36834 ft | 506 kts | 148° |
| 2026-05-07 18:23 | -31.96517 | -61.50106 | 36834 ft | 505 kts | 148° |
| 2026-05-07 18:24 | -32.02418 | -61.45628 | 36833 ft | 503 kts | 148° |
| 2026-05-07 18:24 | -32.07297 | -61.41929 | 36848 ft | 500 kts | 148° |
| 2026-05-07 18:25 | -32.13159 | -61.37495 | 36816 ft | 500 kts | 149° |
| 2026-05-07 18:25 | -32.18983 | -61.33055 | 36771 ft | 498 kts | 148° |
| 2026-05-07 18:26 | -32.24814 | -61.28611 | 36757 ft | 499 kts | 148° |
| 2026-05-07 18:26 | -32.31625 | -61.23423 | 36773 ft | 501 kts | 148° |
| 2026-05-07 18:27 | -32.36540 | -61.19674 | 36756 ft | 503 kts | 148° |
| 2026-05-07 18:27 | -32.42420 | -61.15179 | 36754 ft | 504 kts | 148° |
| 2026-05-07 18:28 | -32.48277 | -61.10695 | 36794 ft | 505 kts | 148° |
| 2026-05-07 18:28 | -32.54176 | -61.06174 | 36782 ft | 504 kts | 148° |
| 2026-05-07 18:29 | -32.60047 | -61.01662 | 36750 ft | 503 kts | 148° |
| 2026-05-07 18:29 | -32.65937 | -60.97126 | 36739 ft | 506 kts | 147° |
| 2026-05-07 18:30 | -32.71853 | -60.92559 | 36733 ft | 508 kts | 147° |
| 2026-05-07 18:30 | -32.77781 | -60.87989 | 36725 ft | 508 kts | 147° |
| 2026-05-07 18:31 | -32.83716 | -60.83403 | 36744 ft | 509 kts | 147° |
| 2026-05-07 18:31 | -32.89657 | -60.78817 | 36723 ft | 508 kts | 147° |
| 2026-05-07 18:32 | -32.95629 | -60.74401 | 36694 ft | 509 kts | 151° |
| 2026-05-07 18:32 | -33.01801 | -60.70239 | 36695 ft | 511 kts | 152° |
| 2026-05-07 18:33 | -33.08038 | -60.66076 | 36754 ft | 515 kts | 151° |
| 2026-05-07 18:33 | -33.14249 | -60.61801 | 36761 ft | 516 kts | 150° |
| 2026-05-07 18:34 | -33.20440 | -60.57475 | 36751 ft | 515 kts | 150° |
| 2026-05-07 18:34 | -33.26582 | -60.53182 | 36783 ft | 515 kts | 150° |
| 2026-05-07 18:35 | -33.32491 | -60.48418 | 36770 ft | 512 kts | 135° |
| 2026-05-07 18:35 | -33.37651 | -60.42544 | 36706 ft | 513 kts | 135° |
| 2026-05-07 18:36 | -33.42803 | -60.36616 | 36706 ft | 515 kts | 135° |
| 2026-05-07 18:36 | -33.47941 | -60.30686 | 36730 ft | 517 kts | 135° |
| 2026-05-07 18:37 | -33.53127 | -60.24715 | 36725 ft | 517 kts | 135° |
| 2026-05-07 18:37 | -33.58319 | -60.18739 | 36709 ft | 517 kts | 134° |
| 2026-05-07 18:38 | -33.63515 | -60.12729 | 36749 ft | 523 kts | 134° |
| 2026-05-07 18:38 | -33.68785 | -60.06623 | 35652 ft | 535 kts | 133° |
| 2026-05-07 18:38 | -33.71492 | -60.03480 | 34521 ft | 547 kts | 131° |
| 2026-05-07 18:39 | -33.74217 | -60.00321 | 33462 ft | 557 kts | 131° |
| 2026-05-07 18:39 | -33.77056 | -59.97030 | 32567 ft | 560 kts | 131° |
| 2026-05-07 18:39 | -33.79823 | -59.93816 | 31852 ft | 560 kts | 131° |
| 2026-05-07 18:39 | -33.82615 | -59.90573 | 31278 ft | 556 kts | 130° |
| 2026-05-07 18:40 | -33.85385 | -59.87354 | 30663 ft | 551 kts | 130° |
| 2026-05-07 18:40 | -33.88138 | -59.84149 | 30045 ft | 550 kts | 129° |
| 2026-05-07 18:40 | -33.90872 | -59.80960 | 29443 ft | 545 kts | 129° |
| 2026-05-07 18:40 | -33.93578 | -59.77801 | 28791 ft | 540 kts | 129° |
| 2026-05-07 18:41 | -33.96263 | -59.74662 | 28211 ft | 535 kts | 130° |
| 2026-05-07 18:41 | -33.98920 | -59.71554 | 27648 ft | 528 kts | 130° |
| 2026-05-07 18:41 | -34.01527 | -59.68507 | 26521 ft | 518 kts | 131° |
| 2026-05-07 18:41 | -34.04053 | -59.65546 | 25421 ft | 509 kts | 131° |
| 2026-05-07 18:42 | -34.06562 | -59.62599 | 24457 ft | 498 kts | 131° |
| 2026-05-07 18:42 | -34.08985 | -59.59752 | 24004 ft | 474 kts | 132° |
| 2026-05-07 18:42 | -34.11316 | -59.57014 | 23509 ft | 467 kts | 133° |
| 2026-05-07 18:42 | -34.13640 | -59.54276 | 22895 ft | 467 kts | 133° |
| 2026-05-07 18:43 | -34.15960 | -59.51540 | 22353 ft | 465 kts | 133° |
| 2026-05-07 18:43 | -34.18263 | -59.48822 | 21807 ft | 462 kts | 133° |
| 2026-05-07 18:43 | -34.20554 | -59.46114 | 21255 ft | 459 kts | 134° |
| 2026-05-07 18:43 | -34.22704 | -59.43291 | 20732 ft | 454 kts | 124° |
| 2026-05-07 18:44 | -34.24521 | -59.40195 | 20209 ft | 450 kts | 122° |
| 2026-05-07 18:44 | -34.26277 | -59.37141 | 19700 ft | 447 kts | 122° |
| 2026-05-07 18:44 | -34.28044 | -59.34066 | 19175 ft | 445 kts | 122° |
| 2026-05-07 18:44 | -34.29807 | -59.30999 | 18634 ft | 443 kts | 123° |
| 2026-05-07 18:45 | -34.31550 | -59.27959 | 18207 ft | 438 kts | 123° |
| 2026-05-07 18:45 | -34.33282 | -59.24943 | 17776 ft | 434 kts | 123° |
| 2026-05-07 18:45 | -34.34993 | -59.21967 | 17312 ft | 428 kts | 124° |
| 2026-05-07 18:45 | -34.36685 | -59.19024 | 16817 ft | 424 kts | 124° |
| 2026-05-07 18:46 | -34.38362 | -59.16107 | 16363 ft | 419 kts | 124° |
| 2026-05-07 18:46 | -34.40016 | -59.13225 | 15911 ft | 415 kts | 125° |
| 2026-05-07 18:46 | -34.41648 | -59.10370 | 15486 ft | 410 kts | 125° |
| 2026-05-07 18:46 | -34.43263 | -59.07542 | 15057 ft | 405 kts | 125° |
| 2026-05-07 18:47 | -34.44837 | -59.04783 | 14634 ft | 402 kts | 126° |
| 2026-05-07 18:47 | -34.46412 | -59.02025 | 14130 ft | 392 kts | 126° |
| 2026-05-07 18:47 | -34.47951 | -58.99331 | 13104 ft | 386 kts | 126° |
| 2026-05-07 18:47 | -34.49478 | -58.96662 | 12640 ft | 382 kts | 126° |
| 2026-05-07 18:48 | -34.50985 | -58.94019 | 12178 ft | 380 kts | 125° |
| 2026-05-07 18:48 | -34.52477 | -58.91395 | 11735 ft | 375 kts | 124° |
| 2026-05-07 18:48 | -34.53950 | -58.88797 | 11271 ft | 374 kts | 124° |
| 2026-05-07 18:48 | -34.55414 | -58.86220 | 11017 ft | 368 kts | 124° |
| 2026-05-07 18:49 | -34.56854 | -58.83679 | 10355 ft | 361 kts | 124° |
| 2026-05-07 18:49 | -34.58255 | -58.81214 | 9836 ft | 344 kts | 124° |
| 2026-05-07 18:49 | -34.59551 | -58.78942 | 9547 ft | 323 kts | 123° |
| 2026-05-07 18:49 | -34.60819 | -58.76707 | 9113 ft | 318 kts | 124° |
| 2026-05-07 18:50 | -34.62055 | -58.74522 | 8944 ft | 314 kts | 123° |
| 2026-05-07 18:50 | -34.63299 | -58.72328 | 8500 ft | 315 kts | 123° |
| 2026-05-07 18:50 | -34.64527 | -58.70147 | 8092 ft | 313 kts | 123° |
| 2026-05-07 18:50 | -34.65755 | -58.67959 | 7726 ft | 312 kts | 124° |
| 2026-05-07 18:51 | -34.66972 | -58.65798 | 7200 ft | 308 kts | 124° |
| 2026-05-07 18:51 | -34.68176 | -58.63655 | 6535 ft | 306 kts | 126° |
| 2026-05-07 18:51 | -34.69377 | -58.61533 | 5937 ft | 303 kts | 126° |
| 2026-05-07 18:51 | -34.70559 | -58.59455 | 5367 ft | 296 kts | 127° |
| 2026-05-07 18:52 | -34.71734 | -58.57372 | 4984 ft | 299 kts | 127° |
| 2026-05-07 18:52 | -34.72910 | -58.55290 | 4590 ft | 299 kts | 129° |
| 2026-05-07 18:52 | -34.74066 | -58.53248 | 3982 ft | 289 kts | 128° |
| 2026-05-07 18:52 | -34.75186 | -58.51256 | 3493 ft | 280 kts | 129° |
| 2026-05-07 18:53 | -34.76247 | -58.49360 | 3366 ft | 270 kts | 129° |
| 2026-05-07 18:53 | -34.77280 | -58.47514 | 3257 ft | 257 kts | 130° |
| 2026-05-07 18:53 | -34.78252 | -58.45772 | 3152 ft | 242 kts | 131° |
| 2026-05-07 18:53 | -34.79167 | -58.44137 | 3015 ft | 227 kts | 131° |
| 2026-05-07 18:54 | -34.80191 | -58.42802 | 2999 ft | 202 kts | 157° |
| 2026-05-07 18:54 | -34.81390 | -58.42388 | 3001 ft | 162 kts | 188° |
| 2026-05-07 18:54 | -34.82393 | -58.42671 | 3016 ft | 140 kts | 212° |
| 2026-05-07 18:54 | -34.83141 | -58.43380 | 2922 ft | 136 kts | 231° |
| 2026-05-07 18:55 | -34.83581 | -58.44382 | 2755 ft | 136 kts | 251° |
| 2026-05-07 18:55 | -34.83659 | -58.45532 | 2566 ft | 139 kts | 271° |
| 2026-05-07 18:55 | -34.83462 | -58.46647 | 2237 ft | 131 kts | 276° |
| 2026-05-07 18:55 | -34.83237 | -58.47731 | 1721 ft | 136 kts | 279° |
| 2026-05-07 18:56 | -34.83007 | -58.48850 | 1140 ft | 139 kts | 279° |
| 2026-05-07 18:56 | -34.82829 | -58.49986 | 729 ft | 134 kts | 277° |
| 2026-05-07 18:56 | -34.82668 | -58.51092 | 394 ft | 130 kts | 280° |
| 2026-05-07 18:56 | -34.82469 | -58.52174 | 106 ft | 130 kts | 281° |
| 2026-05-07 18:57 | -34.82293 | -58.53150 | 87 ft | 104 kts | 282° |
| 2026-05-07 18:57 | -34.82196 | -58.53718 | 85 ft | 44 kts | 283° |
| 2026-05-07 18:57 | -34.82146 | -58.53997 | 81 ft | 30 kts | 282° |
| 2026-05-07 18:57 | -34.82103 | -58.54232 | 84 ft | 26 kts | 282° |
| 2026-05-07 18:58 | -34.82066 | -58.54439 | 84 ft | 23 kts | 283° |
| 2026-05-07 18:58 | -34.82015 | -58.54535 | 81 ft | 11 kts | 2° |
| 2026-05-07 18:58 | -34.81959 | -58.54507 | 82 ft | 7 kts | 34° |
| 2026-05-07 18:58 | -34.81920 | -58.54474 | 70 ft | 6 kts | 35° |
| 2026-05-07 18:59 | -34.81888 | -58.54447 | 71 ft | 5 kts | 34° |
| 2026-05-07 18:59 | -34.81849 | -58.54414 | 66 ft | 10 kts | 35° |
| 2026-05-07 18:59 | -34.81798 | -58.54372 | 71 ft | 0 kts | 32° |
| 2026-05-07 18:59 | -34.81795 | -58.54369 | 76 ft | 2 kts | 34° |
| 2026-05-07 19:00 | -34.81772 | -58.54328 | 75 ft | 10 kts | 75° |
| 2026-05-07 19:00 | -34.81781 | -58.54207 | 68 ft | 17 kts | 97° |
| 2026-05-07 19:00 | -34.81793 | -58.54076 | 67 ft | 14 kts | 88° |
| 2026-05-07 19:00 | -34.81765 | -58.53981 | 66 ft | 12 kts | 58° |
| 2026-05-07 19:01 | -34.81715 | -58.53879 | 75 ft | 15 kts | 59° |
| 2026-05-07 19:01 | -34.81673 | -58.53818 | 69 ft | 2 kts | 41° |
| 2026-05-07 19:01 | -34.81666 | -58.53819 | 75 ft | 3 kts | 6° |
| 2026-05-07 19:01 | -34.81607 | -58.53827 | 69 ft | 14 kts | 350° |
| 2026-05-07 19:02 | -34.81521 | -58.53847 | 75 ft | 5 kts | 349° |
| 2026-05-07 19:02 | -34.81504 | -58.53851 | 62 ft | 0 kts | 349° |